Time;durP1;ratioP1;P1;durP2;ratioP2;P2;SDS_P1;SDS_P2;PMS_P1;PMS_P2;Temp;Humidity;BMP_temperature;BMP_pressure;BME280_temperature;BME280_humidity;BME280_pressure;Samples;Min_cycle;Max_cycle;Signal;HPM_P1;HPM_P2
2024/02/23 00:01:25;;;;;;;;;;;;;;;9.09;75.62;97956.38;5097359;28;20369;-65
2024/02/23 00:03:55;;;;;;;;;;;;;;;9.05;76.22;97961.53;5097507;28;19946;-65
2024/02/23 00:06:27;;;;;;;;;;;;;;;9.05;76.70;97959.84;5097580;28;19919;-64
2024/02/23 00:08:56;;;;;;;;;;;;;;;9.05;76.58;97959.00;5097263;28;19974;-66
2024/02/23 00:11:24;;;;;;;;;;;;;;;9.02;76.56;97954.81;5095901;28;20282;-66
2024/02/23 00:13:54;;;;;;;;;;;;;;;9.00;76.14;97951.47;5097121;28;20046;-65
2024/02/23 00:16:22;;;;;;;;;;;;;;;9.08;75.94;97957.22;5097265;28;20023;-68
2024/02/23 00:18:52;;;;;;;;;;;;;;;9.13;75.68;97952.88;5096648;28;19926;-65
2024/02/23 00:21:20;;;;;;;;;;;;;;;9.20;75.07;97949.31;5096871;28;19986;-66
2024/02/23 00:23:48;;;;;;;;;;;;;;;9.24;74.80;97950.91;5096849;28;19920;-65
2024/02/23 00:26:17;;;;;;;;;;;;;;;9.22;75.08;97957.75;5095021;28;19941;-65
2024/02/23 00:28:46;;;;;;;;;;;;;;;9.18;75.69;97955.31;5095563;28;19943;-65
2024/02/23 00:31:14;;;;;;;;;;;;;;;9.14;76.15;97954.53;5096682;28;20440;-65
2024/02/23 00:33:43;;;;;;;;;;;;;;;9.13;76.37;97952.88;5095524;28;19919;-65
2024/02/23 00:36:13;;;;;;;;;;;;;;;9.18;76.63;97947.69;5096662;28;19959;-66
2024/02/23 00:38:41;;;;;;;;;;;;;;;9.22;75.93;97950.13;5096683;28;20023;-65
2024/02/23 00:41:10;;;;;;;;;;;;;;;9.20;76.50;97949.31;5096192;28;20023;-65
2024/02/23 00:43:39;;;;;;;;;;;;;;;9.17;76.67;97948.53;5096155;28;19924;-65
2024/02/23 00:46:08;;;;;;;;;;;;;;;9.14;76.85;97946.09;5096162;28;20274;-65
2024/02/23 00:48:37;;;;;;;;;;;;;;;9.12;77.02;97951.19;5096444;28;19927;-65
2024/02/23 00:51:05;;;;;;;;;;;;;;;9.07;77.29;97953.00;5095198;28;19920;-65
2024/02/23 00:53:35;;;;;;;;;;;;;;;8.98;77.94;97947.28;5096339;28;19920;-65
2024/02/23 00:56:04;;;;;;;;;;;;;;;8.96;77.98;97949.88;5095929;28;20366;-64
2024/02/23 00:58:32;;;;;;;;;;;;;;;9.00;78.21;97943.84;5096240;28;20032;-66
2024/02/23 01:01:01;;;;;;;;;;;;;;;9.06;78.08;97936.06;5094829;28;20014;-64
2024/02/23 01:03:29;;;;;;;;;;;;;;;9.09;78.58;97945.34;5095841;28;20015;-64
2024/02/23 01:05:57;;;;;;;;;;;;;;;9.13;77.74;97937.59;5094567;28;20340;-65
2024/02/23 01:08:25;;;;;;;;;;;;;;;9.14;77.67;97931.63;5094865;28;19926;-64
2024/02/23 01:10:55;;;;;;;;;;;;;;;9.16;77.95;97937.53;5096263;28;20015;-64
2024/02/23 01:13:24;;;;;;;;;;;;;;;9.15;77.94;97935.00;5095936;28;19977;-64
2024/02/23 01:15:53;;;;;;;;;;;;;;;9.07;78.18;97937.72;5094591;28;19927;-65
2024/02/23 01:18:22;;;;;;;;;;;;;;;9.01;79.09;97927.72;5094605;28;19924;-65
2024/02/23 01:20:50;;;;;;;;;;;;;;;9.10;79.23;97927.50;5095763;28;19924;-65
2024/02/23 01:23:19;;;;;;;;;;;;;;;9.15;79.57;97914.66;5094093;28;19969;-65
2024/02/23 01:25:47;;;;;;;;;;;;;;;9.21;79.46;97920.44;5095050;28;19920;-64
2024/02/23 01:28:17;;;;;;;;;;;;;;;9.22;80.02;97917.03;5095619;28;19989;-63
2024/02/23 01:30:46;;;;;;;;;;;;;;;9.22;79.82;97916.19;5094378;28;20348;-65
2024/02/23 01:33:14;;;;;;;;;;;;;;;9.20;79.99;97912.84;5094359;28;20023;-67
2024/02/23 01:35:43;;;;;;;;;;;;;;;9.19;80.33;97922.19;5095168;28;19969;-65
2024/02/23 01:38:18;;;;;;;;;;;;;;;9.15;80.59;97923.13;5094516;28;19970;-67
2024/02/23 01:40:47;;;;;;;;;;;;;;;9.04;81.04;97925.09;5095084;28;19927;-65
2024/02/23 01:43:17;;;;;;;;;;;;;;;8.98;81.54;97912.50;5095485;28;19966;-66
2024/02/23 01:45:46;;;;;;;;;;;;;;;8.92;82.30;97920.28;5095189;28;20382;-65
2024/02/23 01:48:14;;;;;;;;;;;;;;;8.88;82.25;97925.50;5095628;28;20379;-64
2024/02/23 01:50:43;;;;;;;;;;;;;;;8.82;82.99;97921.38;5095201;28;19927;-65
2024/02/23 01:53:13;;;;;;;;;;;;;;;8.78;83.67;97924.84;5093934;28;20345;-65
2024/02/23 01:55:42;;;;;;;;;;;;;;;8.75;83.80;97915.59;5093997;28;20373;-65
2024/02/23 01:58:10;;;;;;;;;;;;;;;8.78;84.09;97927.41;5093476;28;19947;-64
2024/02/23 02:00:40;;;;;;;;;;;;;;;8.80;84.27;97912.09;5095082;28;19919;-65
2024/02/23 02:03:09;;;;;;;;;;;;;;;8.79;84.72;97921.41;5095016;28;19919;-64
2024/02/23 02:05:40;;;;;;;;;;;;;;;8.79;85.08;97916.34;5093609;28;19919;-65
2024/02/23 02:08:09;;;;;;;;;;;;;;;8.79;85.35;97921.41;5095251;28;19955;-65
2024/02/23 02:10:37;;;;;;;;;;;;;;;8.87;84.73;97914.47;5094000;28;19920;-65
2024/02/23 02:13:06;;;;;;;;;;;;;;;8.80;84.81;97922.25;5095190;28;19943;-65
2024/02/23 02:15:35;;;;;;;;;;;;;;;8.76;85.13;97909.59;5094785;28;20389;-65
2024/02/23 02:18:05;;;;;;;;;;;;;;;8.76;85.53;97917.25;5094468;28;20263;-65
2024/02/23 02:20:34;;;;;;;;;;;;;;;8.76;85.28;97907.06;5093503;28;19920;-65
2024/02/23 02:23:03;;;;;;;;;;;;;;;8.76;85.25;97916.41;5094698;28;19926;-64
2024/02/23 02:25:31;;;;;;;;;;;;;;;8.74;85.58;97911.34;5092885;28;20391;-65
2024/02/23 02:27:59;;;;;;;;;;;;;;;8.75;86.34;97909.66;5094662;28;19927;-64
2024/02/23 02:30:28;;;;;;;;;;;;;;;8.73;86.43;97908.84;5093353;28;19919;-65
2024/02/23 02:32:56;;;;;;;;;;;;;;;8.72;86.34;97910.56;5094359;28;19927;-65
2024/02/23 02:35:26;;;;;;;;;;;;;;;8.71;87.01;97908.88;5094125;28;19920;-64
2024/02/23 02:37:55;;;;;;;;;;;;;;;8.71;86.81;97908.03;5093343;28;19962;-65
2024/02/23 02:40:24;;;;;;;;;;;;;;;8.71;86.88;97910.56;5094146;28;20014;-64
2024/02/23 02:42:52;;;;;;;;;;;;;;;8.70;87.09;97908.91;5076357;28;20369;-64
2024/02/23 02:45:21;;;;;;;;;;;;;;;8.68;87.52;97908.13;5094292;28;19930;-64
2024/02/23 02:47:49;;;;;;;;;;;;;;;8.68;87.84;97913.19;5094407;28;19943;-64
2024/02/23 02:50:18;;;;;;;;;;;;;;;8.72;87.13;97899.53;5094647;28;19920;-64
2024/02/23 02:52:47;;;;;;;;;;;;;;;8.71;87.91;97913.13;5094367;28;19920;-64
2024/02/23 02:55:16;;;;;;;;;;;;;;;8.72;88.10;97914.78;5093066;28;20423;-64
2024/02/23 02:57:45;;;;;;;;;;;;;;;8.70;88.18;97912.31;5094318;28;20321;-64
2024/02/23 03:00:13;;;;;;;;;;;;;;;8.66;88.05;97920.03;5094077;28;19920;-65
2024/02/23 03:02:42;;;;;;;;;;;;;;;8.68;87.14;97915.75;5093899;28;19924;-64
2024/02/23 03:05:10;;;;;;;;;;;;;;;8.66;87.96;97909.88;5093775;28;19955;-65
2024/02/23 03:07:39;;;;;;;;;;;;;;;8.63;88.25;97912.47;5093868;28;20370;-64
2024/02/23 03:10:09;;;;;;;;;;;;;;;8.61;88.24;97926.91;5094203;28;19959;-63
2024/02/23 03:12:37;;;;;;;;;;;;;;;8.57;88.26;97925.28;5093908;28;19926;-64
2024/02/23 03:15:07;;;;;;;;;;;;;;;8.56;87.96;97921.94;5094202;28;19920;-65
2024/02/23 03:17:35;;;;;;;;;;;;;;;8.54;88.20;97930.47;5092569;28;20297;-64
2024/02/23 03:20:08;;;;;;;;;;;;;;;8.50;88.80;97929.69;5094151;28;19973;-64
2024/02/23 03:22:37;;;;;;;;;;;;;;;8.50;89.08;97929.69;5093858;28;20385;-65
2024/02/23 03:25:08;;;;;;;;;;;;;;;8.55;88.90;97932.13;5093706;28;19920;-64
2024/02/23 03:27:38;;;;;;;;;;;;;;;8.57;89.31;97930.38;5093615;28;19966;-64
2024/02/23 03:30:08;;;;;;;;;;;;;;;8.58;89.13;97932.06;5075577;28;19969;-64
2024/02/23 03:32:37;;;;;;;;;;;;;;;8.60;89.25;97925.22;5092612;28;20011;-64
2024/02/23 03:35:07;;;;;;;;;;;;;;;8.67;89.60;97936.94;5093711;28;19924;-65
2024/02/23 03:37:35;;;;;;;;;;;;;;;8.68;89.58;97933.53;5075842;28;19970;-65
2024/02/23 03:40:04;;;;;;;;;;;;;;;8.63;89.69;97935.34;5094129;28;19920;-64
2024/02/23 03:42:33;;;;;;;;;;;;;;;8.61;90.31;97932.00;5093784;28;19973;-65
2024/02/23 03:45:02;;;;;;;;;;;;;;;8.65;89.84;97928.50;5093595;28;19923;-65
2024/02/23 03:47:31;;;;;;;;;;;;;;;8.67;90.43;97936.94;5097641;28;19919;-64
2024/02/23 03:49:59;;;;;;;;;;;;;;;8.70;90.46;97942.81;5096020;28;20316;-63
2024/02/23 03:52:28;;;;;;;;;;;;;;;8.74;89.68;97943.56;5097377;28;19920;-64
2024/02/23 03:54:56;;;;;;;;;;;;;;;8.73;90.52;97937.63;5096311;28;19927;-64
2024/02/23 03:57:25;;;;;;;;;;;;;;;8.75;90.58;97938.47;5096138;28;19924;-64
2024/02/23 03:59:53;;;;;;;;;;;;;;;8.79;90.17;97934.13;5097310;28;19919;-64
2024/02/23 04:02:24;;;;;;;;;;;;;;;8.80;90.53;97943.47;5097353;28;19967;-64
2024/02/23 04:04:53;;;;;;;;;;;;;;;8.80;90.56;97942.59;5097096;28;20332;-64
2024/02/23 04:07:22;;;;;;;;;;;;;;;8.80;90.06;97943.47;5097324;28;19931;-64
2024/02/23 04:09:52;;;;;;;;;;;;;;;8.81;90.13;97936.63;5097191;28;20018;-64
2024/02/23 04:12:21;;;;;;;;;;;;;;;8.80;89.80;97943.47;5097087;28;19927;-63
2024/02/23 04:14:49;;;;;;;;;;;;;;;8.81;90.05;97929.84;5097657;28;19920;-64
2024/02/23 04:17:17;;;;;;;;;;;;;;;8.82;90.02;97931.53;5095893;28;19920;-64
2024/02/23 04:19:48;;;;;;;;;;;;;;;8.82;90.17;97923.91;5096974;28;20018;-64
2024/02/23 04:22:17;;;;;;;;;;;;;;;8.83;90.30;97933.19;5096978;28;19920;-64
2024/02/23 04:24:45;;;;;;;;;;;;;;;8.82;89.82;97935.78;5096280;28;20308;-64
2024/02/23 04:27:14;;;;;;;;;;;;;;;8.81;90.49;97934.94;5096736;28;19969;-64
2024/02/23 04:29:42;;;;;;;;;;;;;;;8.80;90.38;97940.06;5096814;28;19955;-64
2024/02/23 04:32:11;;;;;;;;;;;;;;;8.79;89.96;97931.59;5095585;28;20274;-64
2024/02/23 04:34:40;;;;;;;;;;;;;;;8.81;90.36;97945.09;5095464;28;19924;-63
2024/02/23 04:37:10;;;;;;;;;;;;;;;8.83;90.08;97940.00;5096387;28;19926;-64
2024/02/23 04:39:41;;;;;;;;;;;;;;;8.81;89.89;97952.75;5096355;28;19924;-64
2024/02/23 04:42:10;;;;;;;;;;;;;;;8.81;89.94;97945.09;5096619;28;19920;-64
2024/02/23 04:44:38;;;;;;;;;;;;;;;8.82;89.61;97949.34;5096358;28;19926;-64
2024/02/23 04:47:07;;;;;;;;;;;;;;;8.81;89.65;97942.56;5095096;28;19920;-64
2024/02/23 04:49:35;;;;;;;;;;;;;;;8.78;90.19;97965.53;5096286;28;19920;-63
2024/02/23 04:52:04;;;;;;;;;;;;;;;8.72;89.88;97955.50;5096405;28;19924;-64
2024/02/23 04:54:34;;;;;;;;;;;;;;;8.70;90.18;97952.16;5094749;28;19919;-64
2024/02/23 04:57:04;;;;;;;;;;;;;;;8.67;89.92;97957.28;5095439;28;19919;-64
2024/02/23 04:59:32;;;;;;;;;;;;;;;8.62;90.44;97964.16;5095931;28;20001;-64
2024/02/23 05:02:01;;;;;;;;;;;;;;;8.57;90.89;97955.78;5096168;28;19920;-65
2024/02/23 05:04:29;;;;;;;;;;;;;;;8.54;91.06;97963.50;5096070;28;20342;-64
2024/02/23 05:06:58;;;;;;;;;;;;;;;8.52;91.24;97962.69;5095964;28;19920;-64
2024/02/23 05:09:26;;;;;;;;;;;;;;;8.56;91.43;97959.22;5095996;28;19974;-64
2024/02/23 05:11:56;;;;;;;;;;;;;;;8.55;91.11;97957.53;5095949;28;19920;-64
2024/02/23 05:14:25;;;;;;;;;;;;;;;8.58;91.37;97962.56;5096570;28;19920;-64
2024/02/23 05:16:53;;;;;;;;;;;;;;;8.59;90.85;97969.34;5095912;28;19924;-64
2024/02/23 05:19:22;;;;;;;;;;;;;;;8.58;90.95;97960.88;5095540;28;20289;-65
2024/02/23 05:21:50;;;;;;;;;;;;;;;8.56;91.32;97966.84;5095719;28;20011;-65
2024/02/23 05:24:19;;;;;;;;;;;;;;;8.52;91.51;97957.59;5095695;28;20373;-64
2024/02/23 05:26:47;;;;;;;;;;;;;;;8.53;91.51;97965.22;5094095;28;20320;-64
2024/02/23 05:29:19;;;;;;;;;;;;;;;8.54;91.50;97966.88;5095696;28;20018;-65
2024/02/23 05:31:49;;;;;;;;;;;;;;;8.55;92.01;97975.34;5095610;28;19920;-65
2024/02/23 05:34:18;;;;;;;;;;;;;;;8.54;91.59;97983.84;5095568;28;20045;-65
2024/02/23 05:36:46;;;;;;;;;;;;;;;8.57;92.00;97971.06;5095528;28;19926;-65
2024/02/23 05:39:17;;;;;;;;;;;;;;;8.57;91.88;97971.91;5095698;28;20272;-65
2024/02/23 05:41:45;;;;;;;;;;;;;;;8.55;91.60;97972.78;5094982;28;19965;-64
2024/02/23 05:44:13;;;;;;;;;;;;;;;8.54;92.00;97987.19;5095344;28;19927;-65
2024/02/23 05:46:43;;;;;;;;;;;;;;;8.55;91.90;97988.03;5093933;28;19924;-65
2024/02/23 05:49:12;;;;;;;;;;;;;;;8.55;91.97;97996.50;5094981;28;19920;-65
2024/02/23 05:51:40;;;;;;;;;;;;;;;8.56;92.23;97997.38;5095143;28;19955;-65
2024/02/23 05:54:09;;;;;;;;;;;;;;;8.58;92.38;98009.19;5095215;28;19920;-65
2024/02/23 05:56:38;;;;;;;;;;;;;;;8.59;92.57;98012.56;5094655;28;19927;-65
2024/02/23 05:59:07;;;;;;;;;;;;;;;8.56;92.04;98015.16;5095110;28;20018;-65
2024/02/23 06:01:35;;;;;;;;;;;;;;;8.54;92.22;98011.81;5093778;28;19974;-65
2024/02/23 06:04:06;;;;;;;;;;;;;;;8.54;92.16;98017.72;5095015;28;19924;-66
2024/02/23 06:06:34;;;;;;;;;;;;;;;8.55;92.14;98019.41;5094895;28;19924;-65
2024/02/23 06:09:05;;;;;;;;;;;;;;;8.54;92.12;98027.06;5093788;28;19969;-65
2024/02/23 06:11:34;;;;;;;;;;;;;;;8.48;92.24;98022.94;5094889;28;19930;-65
2024/02/23 06:14:03;;;;;;;;;;;;;;;8.48;92.29;98027.16;5094590;28;20382;-66
2024/02/23 06:16:31;;;;;;;;;;;;;;;8.47;92.38;98025.50;5094481;28;20360;-66
2024/02/23 06:19:00;;;;;;;;;;;;;;;8.46;92.34;98023.81;5094384;28;19927;-65
2024/02/23 06:21:31;;;;;;;;;;;;;;;8.46;92.74;98019.59;5094941;28;19920;-65
2024/02/23 06:24:02;;;;;;;;;;;;;;;8.44;92.79;98017.94;5093630;28;19962;-65
2024/02/23 06:26:31;;;;;;;;;;;;;;;8.44;92.69;98015.41;5094350;28;19920;-65
2024/02/23 06:28:59;;;;;;;;;;;;;;;8.44;93.15;98030.66;5094147;28;19942;-65
2024/02/23 06:31:28;;;;;;;;;;;;;;;8.43;93.84;98019.63;5094494;28;19973;-65
2024/02/23 06:33:56;;;;;;;;;;;;;;;8.46;93.65;98021.28;5093313;28;19926;-65
2024/02/23 06:36:25;;;;;;;;;;;;;;;8.48;93.07;98025.47;5094387;28;19946;-65
2024/02/23 06:38:54;;;;;;;;;;;;;;;8.50;93.83;98035.59;5094520;28;19927;-64
2024/02/23 06:41:23;;;;;;;;;;;;;;;8.48;93.52;98035.63;5093119;28;20018;-64
2024/02/23 06:43:53;;;;;;;;;;;;;;;8.49;93.43;98041.56;5094394;28;19990;-64
2024/02/23 06:46:21;;;;;;;;;;;;;;;8.49;93.74;98041.56;5094270;28;19920;-64
2024/02/23 06:48:49;;;;;;;;;;;;;;;8.49;93.56;98049.19;5092876;28;19919;-64
2024/02/23 06:51:20;;;;;;;;;;;;;;;8.48;93.50;98052.59;5093114;28;19920;-64
2024/02/23 06:53:48;;;;;;;;;;;;;;;8.50;93.59;98048.31;5092816;28;20362;-64
2024/02/23 06:56:18;;;;;;;;;;;;;;;8.49;93.59;98049.19;5093018;28;19919;-64
2024/02/23 06:58:47;;;;;;;;;;;;;;;8.48;93.51;98052.59;5094177;28;20366;-64
2024/02/23 07:01:15;;;;;;;;;;;;;;;8.49;93.65;98054.28;5093951;28;19931;-64
2024/02/23 07:03:45;;;;;;;;;;;;;;;8.48;94.39;98055.13;5092602;28;19919;-64
2024/02/23 07:06:13;;;;;;;;;;;;;;;8.49;93.90;98056.81;5092981;28;20282;-64
2024/02/23 07:08:42;;;;;;;;;;;;;;;8.50;94.86;98066.09;5093956;28;20373;-64
2024/02/23 07:11:10;;;;;;;;;;;;;;;8.49;94.25;98055.13;5094727;28;20018;-64
2024/02/23 07:13:43;;;;;;;;;;;;;;;8.50;94.89;98050.84;5094084;28;19927;-64
2024/02/23 07:16:12;;;;;;;;;;;;;;;8.52;95.26;98059.28;5094120;28;19920;-65
2024/02/23 07:18:41;;;;;;;;;;;;;;;8.51;94.38;98058.47;5093716;28;19920;-64
2024/02/23 07:21:10;;;;;;;;;;;;;;;8.49;95.09;98050.03;5097044;28;19959;-64
2024/02/23 07:23:38;;;;;;;;;;;;;;;8.50;95.10;98040.69;5096689;28;19920;-64
2024/02/23 07:26:07;;;;;;;;;;;;;;;8.50;95.39;98050.84;5096386;28;20297;-64
2024/02/23 07:28:35;;;;;;;;;;;;;;;8.51;95.93;98057.63;5097702;28;20350;-64
2024/02/23 07:31:05;;;;;;;;;;;;;;;8.50;95.55;98056.78;5097928;28;19920;-64
2024/02/23 07:33:34;;;;;;;;;;;;;;;8.49;95.07;98059.38;5097497;28;19969;-64
2024/02/23 07:36:02;;;;;;;;;;;;;;;8.49;95.79;98057.66;5097818;28;19920;-64
2024/02/23 07:38:30;;;;;;;;;;;;;;;8.49;96.01;98069.53;5096450;28;19920;-64
2024/02/23 07:40:59;;;;;;;;;;;;;;;8.51;95.59;98072.88;5097795;28;19920;-64
2024/02/23 07:43:29;;;;;;;;;;;;;;;8.53;95.94;98060.97;5097507;28;19920;-64
2024/02/23 07:45:57;;;;;;;;;;;;;;;8.56;96.17;98060.91;5097916;28;19926;-64
2024/02/23 07:48:27;;;;;;;;;;;;;;;8.57;95.52;98068.50;5096068;28;19923;-64
2024/02/23 07:50:55;;;;;;;;;;;;;;;8.58;95.94;98069.34;5096196;28;19923;-64
2024/02/23 07:53:24;;;;;;;;;;;;;;;8.57;96.50;98063.44;5096234;28;20011;-64
2024/02/23 07:55:52;;;;;;;;;;;;;;;8.58;95.88;98065.13;5097401;28;20380;-64
2024/02/23 07:58:22;;;;;;;;;;;;;;;8.62;96.12;98070.97;5097342;28;19959;-64
2024/02/23 08:00:50;;;;;;;;;;;;;;;8.62;96.64;98074.34;5097082;28;19920;-64
2024/02/23 08:03:19;;;;;;;;;;;;;;;8.61;96.48;98074.38;5096997;28;19935;-64
2024/02/23 08:05:49;;;;;;;;;;;;;;;8.60;96.98;98072.69;5105040;28;19920;-64
2024/02/23 08:08:17;;;;;;;;;;;;;;;8.61;96.57;98074.38;5104658;28;19970;-64
2024/02/23 08:10:46;;;;;;;;;;;;;;;8.61;97.12;98090.47;5106013;28;19924;-64
2024/02/23 08:13:15;;;;;;;;;;;;;;;8.64;96.55;98090.41;5106468;28;19920;-64
2024/02/23 08:16:03;;;;;;;;;;;;;;;8.66;97.14;98100.56;5107847;28;19980;-65
2024/02/23 08:18:50;;;;;;;;;;;;;;;8.65;97.43;98101.44;5106178;28;19927;-64
2024/02/23 08:21:20;;;;;;;;;;;;;;;8.68;97.61;98111.53;5104149;28;19963;-64
2024/02/23 08:23:49;;;;;;;;;;;;;;;8.66;97.00;98120.91;5096271;28;20397;-64
2024/02/23 08:26:21;;;;;;;;;;;;;;;8.68;97.13;98127.66;5095897;28;20273;-65
2024/02/23 08:29:09;;;;;;;;;;;;;;;8.67;97.44;98130.19;5095295;28;19920;-64
2024/02/23 08:31:38;;;;;;;;;;;;;;;8.66;97.71;98133.63;5095546;28;19920;-64
2024/02/23 08:34:09;;;;;;;;;;;;;;;8.66;98.27;98129.34;5096752;28;19920;-64
2024/02/23 08:36:42;;;;;;;;;;;;;;;8.65;98.43;98122.63;5096638;28;19920;-64
2024/02/23 08:39:13;;;;;;;;;;;;;;;8.66;98.00;98128.53;5095810;28;19919;-64
2024/02/23 08:41:42;;;;;;;;;;;;;;;8.68;98.43;98126.81;5095824;28;20405;-64
2024/02/23 08:44:11;;;;;;;;;;;;;;;8.70;98.31;98125.06;5096010;28;19963;-64
2024/02/23 08:46:40;;;;;;;;;;;;;;;8.72;98.89;98128.41;5096486;28;19920;-64
2024/02/23 08:49:11;;;;;;;;;;;;;;;8.75;98.62;98130.91;5096267;28;19920;-64
2024/02/23 08:51:42;;;;;;;;;;;;;;;8.76;98.96;98130.03;5096150;28;19923;-64
2024/02/23 08:54:10;;;;;;;;;;;;;;;8.78;99.04;98139.31;5096231;28;19924;-64
2024/02/23 08:56:42;;;;;;;;;;;;;;;8.81;99.38;98143.50;5096086;28;19920;-64
2024/02/23 08:59:11;;;;;;;;;;;;;;;8.84;99.12;98148.53;5096241;28;19924;-64
2024/02/23 09:01:39;;;;;;;;;;;;;;;8.87;99.28;98155.28;5095830;28;19963;-64
2024/02/23 09:04:08;;;;;;;;;;;;;;;8.86;99.52;98156.97;5096115;28;19927;-64
2024/02/23 09:06:39;;;;;;;;;;;;;;;8.87;99.60;98153.56;5096263;28;19973;-64
2024/02/23 09:09:10;;;;;;;;;;;;;;;8.89;99.44;98151.84;5095227;28;19924;-64
2024/02/23 09:11:38;;;;;;;;;;;;;;;8.88;99.93;98155.25;5095910;28;19927;-64
2024/02/23 09:14:07;;;;;;;;;;;;;;;8.91;99.65;98150.09;5095740;28;20361;-64
2024/02/23 09:16:37;;;;;;;;;;;;;;;8.94;99.77;98155.13;5095835;28;20010;-64
2024/02/23 09:19:06;;;;;;;;;;;;;;;8.97;99.30;98159.34;5094617;28;19920;-64
2024/02/23 09:21:34;;;;;;;;;;;;;;;8.98;99.75;98166.94;5095404;28;19926;-64
2024/02/23 09:24:03;;;;;;;;;;;;;;;9.00;100.00;98170.28;5095581;28;19927;-64
2024/02/23 09:26:33;;;;;;;;;;;;;;;9.02;100.00;98173.63;5095194;28;20385;-64
2024/02/23 09:29:02;;;;;;;;;;;;;;;9.04;100.00;98182.09;5096074;28;19926;-64
2024/02/23 09:31:31;;;;;;;;;;;;;;;9.02;100.00;98173.63;5095619;28;19973;-65
2024/02/23 09:34:00;;;;;;;;;;;;;;;9.03;99.75;98190.56;5111243;28;19967;-65
2024/02/23 09:36:30;;;;;;;;;;;;;;;9.05;99.67;98193.94;5095463;28;19920;-65
2024/02/23 09:38:58;;;;;;;;;;;;;;;9.02;100.00;98199.06;5094303;28;19969;-64
2024/02/23 09:41:27;;;;;;;;;;;;;;;9.04;100.00;98209.22;5095554;28;19920;-65
2024/02/23 09:44:00;;;;;;;;;;;;;;;9.00;100.00;98195.72;5113437;28;20296;-64
2024/02/23 09:46:35;;;;;;;;;;;;;;;9.00;99.87;98210.16;5115754;28;19920;-64
2024/02/23 09:49:06;;;;;;;;;;;;;;;8.98;100.00;98207.63;5115377;28;20380;-64
2024/02/23 09:51:36;;;;;;;;;;;;;;;8.93;100.00;98208.56;5097369;28;19919;-64
2024/02/23 09:54:07;;;;;;;;;;;;;;;8.92;100.00;98215.38;5115501;28;20361;-64
2024/02/23 09:56:37;;;;;;;;;;;;;;;8.95;99.70;98217.84;5114260;28;19967;-64
2024/02/23 09:59:07;;;;;;;;;;;;;;;8.98;99.87;98234.78;5115191;28;20277;-64
2024/02/23 10:01:37;;;;;;;;;;;;;;;8.99;99.75;98234.78;5097279;28;19923;-64
2024/02/23 10:04:09;;;;;;;;;;;;;;;8.98;99.68;98233.06;5097405;28;20357;-64
2024/02/23 10:06:37;;;;;;;;;;;;;;;8.95;99.93;98238.22;5115632;28;19920;-64
2024/02/23 10:09:06;;;;;;;;;;;;;;;8.94;99.81;98231.47;5113973;28;20365;-64
2024/02/23 10:11:35;;;;;;;;;;;;;;;8.92;100.00;98230.66;5114809;28;19927;-64
2024/02/23 10:14:12;;;;;;;;;;;;;;;8.89;99.86;98240.88;5115174;28;19985;-64
2024/02/23 10:16:40;;;;;;;;;;;;;;;8.89;100.00;98243.41;5115175;28;19951;-64
2024/02/23 10:19:09;;;;;;;;;;;;;;;8.91;100.00;98246.78;5115172;28;19977;-64
2024/02/23 10:21:40;;;;;;;;;;;;;;;8.90;99.83;98255.25;5114874;28;19920;-64
2024/02/23 10:24:12;;;;;;;;;;;;;;;8.88;99.94;98251.91;5115069;28;19924;-64
2024/02/23 10:26:41;;;;;;;;;;;;;;;8.88;100.00;98251.91;5114494;28;19920;-64
2024/02/23 10:29:16;;;;;;;;;;;;;;;8.92;100.00;98258.63;5113802;28;20009;-63
2024/02/23 10:31:49;;;;;;;;;;;;;;;8.93;99.56;98265.38;5114637;28;19942;-64
2024/02/23 10:34:25;;;;;;;;;;;;;;;8.97;99.95;98261.94;5114946;28;19926;-64
2024/02/23 10:36:57;;;;;;;;;;;;;;;8.95;99.82;98268.75;5114956;28;19946;-64
2024/02/23 10:39:25;;;;;;;;;;;;;;;8.98;99.86;98276.31;5114560;28;20011;-64
2024/02/23 10:41:58;;;;;;;;;;;;;;;8.97;99.59;98274.66;5114398;28;20419;-64
2024/02/23 10:44:30;;;;;;;;;;;;;;;8.95;99.66;98273.81;5114777;28;19920;-64
2024/02/23 10:47:02;;;;;;;;;;;;;;;8.97;99.44;98282.31;5115003;28;19919;-64
2024/02/23 10:49:32;;;;;;;;;;;;;;;8.97;99.50;98296.72;5114482;28;20423;-64
2024/02/23 10:52:01;;;;;;;;;;;;;;;8.96;99.84;98298.41;5114275;28;20388;-64
2024/02/23 10:54:32;;;;;;;;;;;;;;;8.96;99.84;98295.88;5114952;28;19920;-64
2024/02/23 10:57:06;;;;;;;;;;;;;;;8.96;99.33;98293.34;5121568;27;19919;-64
2024/02/23 10:59:36;;;;;;;;;;;;;;;8.99;99.36;98274.63;5121510;27;19968;-64
2024/02/23 11:02:05;;;;;;;;;;;;;;;8.97;99.61;98276.38;5121097;27;20369;-64
2024/02/23 11:04:35;;;;;;;;;;;;;;;8.99;99.38;98264.47;5121291;27;19920;-64
2024/02/23 11:07:07;;;;;;;;;;;;;;;9.02;99.44;98269.50;5120056;28;19980;-64
2024/02/23 11:09:42;;;;;;;;;;;;;;;9.03;99.88;98274.56;5121054;27;20286;-64
2024/02/23 11:12:11;;;;;;;;;;;;;;;9.04;99.86;98281.34;5119665;28;20030;-64
2024/02/23 11:14:41;;;;;;;;;;;;;;;9.02;99.35;98280.50;5121260;27;19962;-64
2024/02/23 11:17:18;;;;;;;;;;;;;;;9.03;99.22;98264.38;5119703;28;19926;-64
2024/02/23 11:19:47;;;;;;;;;;;;;;;9.06;99.83;98260.94;5120447;28;19919;-64
2024/02/23 11:22:16;;;;;;;;;;;;;;;9.08;99.26;98259.19;5121127;28;19920;-64
2024/02/23 11:24:53;;;;;;;;;;;;;;;9.08;99.14;98249.03;5120547;28;19973;-64
2024/02/23 11:27:26;;;;;;;;;;;;;;;9.05;99.63;98252.44;5119021;28;19919;-65
2024/02/23 11:30:02;;;;;;;;;;;;;;;9.06;99.00;98260.94;5121222;27;19926;-64
2024/02/23 11:32:39;;;;;;;;;;;;;;;9.10;99.18;98265.94;5119906;28;19942;-64
2024/02/23 11:35:13;;;;;;;;;;;;;;;9.11;98.69;98280.34;5121182;27;19920;-64
2024/02/23 11:37:47;;;;;;;;;;;;;;;9.15;98.75;98276.03;5119944;28;19980;-64
2024/02/23 11:40:16;;;;;;;;;;;;;;;9.19;99.28;98270.84;5119826;28;19968;-64
2024/02/23 11:42:44;;;;;;;;;;;;;;;9.21;98.55;98261.47;5120737;27;19920;-64
2024/02/23 11:45:14;;;;;;;;;;;;;;;9.23;98.80;98279.28;5119608;28;20018;-64
2024/02/23 11:47:43;;;;;;;;;;;;;;;9.27;98.63;98275.81;5120704;27;19923;-64
2024/02/23 11:50:12;;;;;;;;;;;;;;;9.30;98.30;98266.44;5120923;27;19969;-65
2024/02/23 11:52:40;;;;;;;;;;;;;;;9.35;98.92;98273.97;5120588;28;19919;-64
2024/02/23 11:55:11;;;;;;;;;;;;;;;9.39;98.45;98276.44;5120933;28;20104;-64
2024/02/23 11:57:43;;;;;;;;;;;;;;;9.47;98.35;98267.81;5121186;27;19923;-64
2024/02/23 12:00:17;;;;;;;;;;;;;;;9.48;98.42;98264.41;5120989;27;19926;-64
2024/02/23 12:02:49;;;;;;;;;;;;;;;9.50;97.99;98272.84;5120911;27;19927;-64
2024/02/23 12:05:21;;;;;;;;;;;;;;;9.51;97.73;98269.41;5120849;28;20385;-64
2024/02/23 12:07:50;;;;;;;;;;;;;;;9.51;97.36;98264.34;5117595;28;19931;-64
2024/02/23 12:10:18;;;;;;;;;;;;;;;9.53;97.70;98263.44;5117878;28;19926;-64
2024/02/23 12:12:47;;;;;;;;;;;;;;;9.55;97.39;98276.16;5117559;28;20018;-64
2024/02/23 12:15:17;;;;;;;;;;;;;;;9.57;96.78;98289.69;5116319;28;19968;-64
2024/02/23 12:17:48;;;;;;;;;;;;;;;9.57;97.20;98294.78;5117781;28;20346;-64
2024/02/23 12:20:21;;;;;;;;;;;;;;;9.55;96.97;98301.63;5116664;28;19923;-64
2024/02/23 12:22:56;;;;;;;;;;;;;;;9.53;96.62;98304.19;5117481;28;19927;-63
2024/02/23 12:25:27;;;;;;;;;;;;;;;9.52;96.56;98304.22;5115519;28;19919;-64
2024/02/23 12:27:57;;;;;;;;;;;;;;;9.52;96.23;98296.56;5115348;28;20376;-64
2024/02/23 12:30:33;;;;;;;;;;;;;;;9.48;95.98;98295.78;5117161;28;19919;-64
2024/02/23 12:33:05;;;;;;;;;;;;;;;9.47;95.97;98289.03;5117193;28;19988;-64
2024/02/23 12:35:37;;;;;;;;;;;;;;;9.49;95.40;98281.34;5117205;28;20388;-64
2024/02/23 12:38:06;;;;;;;;;;;;;;;9.49;95.86;98271.16;5117196;27;19920;-64
2024/02/23 12:40:35;;;;;;;;;;;;;;;9.52;95.45;98281.31;5115910;28;19920;-64
2024/02/23 12:43:04;;;;;;;;;;;;;;;9.53;95.14;98275.31;5115045;28;20410;-63
2024/02/23 12:45:34;;;;;;;;;;;;;;;9.56;95.73;98277.81;5116504;28;19934;-64
2024/02/23 12:48:02;;;;;;;;;;;;;;;9.59;95.44;98273.53;5117122;28;19919;-64
2024/02/23 12:50:30;;;;;;;;;;;;;;;9.62;95.28;98282.81;5116753;27;20345;-64
2024/02/23 12:53:02;;;;;;;;;;;;;;;9.63;94.96;98282.75;5116475;28;19927;-64
2024/02/23 12:55:31;;;;;;;;;;;;;;;9.63;94.95;98279.38;5117088;28;19949;-64
2024/02/23 12:57:59;;;;;;;;;;;;;;;9.62;94.59;98287.91;5116715;28;19920;-63
2024/02/23 13:00:31;;;;;;;;;;;;;;;9.61;94.46;98286.22;5116504;28;19930;-64
2024/02/23 13:03:00;;;;;;;;;;;;;;;9.60;94.99;98279.47;5116149;28;19924;-64
2024/02/23 13:05:35;;;;;;;;;;;;;;;9.62;94.64;98277.72;5116357;28;20010;-64
2024/02/23 13:08:07;;;;;;;;;;;;;;;9.61;94.36;98286.22;5115296;28;19920;-63
2024/02/23 13:10:36;;;;;;;;;;;;;;;9.59;94.02;98285.41;5116395;28;20361;-64